sensor_id;sensor_type;location;lat;lon;timestamp;P1;durP1;ratioP1;P2;durP2;ratioP2
17925;SDS011;9088;55.674;13.354;2023-04-24T00:01:58;2.97;;;2.87;;
17925;SDS011;9088;55.674;13.354;2023-04-24T00:04:25;3.00;;;2.90;;
17925;SDS011;9088;55.674;13.354;2023-04-24T00:06:53;3.10;;;3.00;;
17925;SDS011;9088;55.674;13.354;2023-04-24T00:09:22;2.90;;;2.80;;
17925;SDS011;9088;55.674;13.354;2023-04-24T00:11:50;3.00;;;2.90;;
17925;SDS011;9088;55.674;13.354;2023-04-24T00:14:17;3.10;;;3.00;;
17925;SDS011;9088;55.674;13.354;2023-04-24T00:16:44;3.00;;;2.90;;
17925;SDS011;9088;55.674;13.354;2023-04-24T00:19:11;3.30;;;3.20;;
17925;SDS011;9088;55.674;13.354;2023-04-24T00:21:39;3.20;;;3.10;;
17925;SDS011;9088;55.674;13.354;2023-04-24T00:24:06;3.30;;;3.20;;
17925;SDS011;9088;55.674;13.354;2023-04-24T00:26:34;3.20;;;3.10;;
17925;SDS011;9088;55.674;13.354;2023-04-24T00:29:02;3.20;;;3.10;;
17925;SDS011;9088;55.674;13.354;2023-04-24T00:31:29;3.30;;;3.20;;
17925;SDS011;9088;55.674;13.354;2023-04-24T00:33:59;3.30;;;3.20;;
17925;SDS011;9088;55.674;13.354;2023-04-24T00:36:27;3.20;;;3.10;;
17925;SDS011;9088;55.674;13.354;2023-04-24T00:38:55;3.03;;;2.93;;
17925;SDS011;9088;55.674;13.354;2023-04-24T00:41:22;3.27;;;3.17;;
17925;SDS011;9088;55.674;13.354;2023-04-24T00:43:51;3.27;;;3.17;;
17925;SDS011;9088;55.674;13.354;2023-04-24T00:46:19;3.17;;;3.07;;
17925;SDS011;9088;55.674;13.354;2023-04-24T00:48:47;3.00;;;2.90;;
17925;SDS011;9088;55.674;13.354;2023-04-24T00:51:14;2.93;;;2.83;;
17925;SDS011;9088;55.674;13.354;2023-04-24T00:53:41;3.00;;;2.90;;
17925;SDS011;9088;55.674;13.354;2023-04-24T00:56:08;3.10;;;3.00;;
17925;SDS011;9088;55.674;13.354;2023-04-24T00:58:36;3.10;;;3.00;;
17925;SDS011;9088;55.674;13.354;2023-04-24T01:01:03;3.00;;;2.90;;
17925;SDS011;9088;55.674;13.354;2023-04-24T01:03:33;3.10;;;3.00;;
17925;SDS011;9088;55.674;13.354;2023-04-24T01:06:01;3.40;;;3.30;;
17925;SDS011;9088;55.674;13.354;2023-04-24T01:08:29;3.13;;;3.03;;
17925;SDS011;9088;55.674;13.354;2023-04-24T01:10:56;3.13;;;3.03;;
17925;SDS011;9088;55.674;13.354;2023-04-24T01:13:23;3.10;;;3.00;;
17925;SDS011;9088;55.674;13.354;2023-04-24T01:15:50;3.20;;;3.10;;
17925;SDS011;9088;55.674;13.354;2023-04-24T01:18:17;3.20;;;3.10;;
17925;SDS011;9088;55.674;13.354;2023-04-24T01:20:48;3.20;;;3.10;;
17925;SDS011;9088;55.674;13.354;2023-04-24T01:23:18;3.10;;;3.00;;
17925;SDS011;9088;55.674;13.354;2023-04-24T01:25:45;3.20;;;3.10;;
17925;SDS011;9088;55.674;13.354;2023-04-24T01:28:13;3.30;;;3.20;;
17925;SDS011;9088;55.674;13.354;2023-04-24T01:30:40;3.40;;;3.30;;
17925;SDS011;9088;55.674;13.354;2023-04-24T01:33:07;3.40;;;3.30;;
17925;SDS011;9088;55.674;13.354;2023-04-24T01:35:35;3.50;;;3.40;;
17925;SDS011;9088;55.674;13.354;2023-04-24T01:38:02;3.47;;;3.37;;
17925;SDS011;9088;55.674;13.354;2023-04-24T01:40:31;3.30;;;3.20;;
17925;SDS011;9088;55.674;13.354;2023-04-24T01:42:59;3.30;;;3.20;;
17925;SDS011;9088;55.674;13.354;2023-04-24T01:45:25;3.40;;;3.30;;
17925;SDS011;9088;55.674;13.354;2023-04-24T01:47:52;3.30;;;3.20;;
17925;SDS011;9088;55.674;13.354;2023-04-24T01:50:20;3.40;;;3.30;;
17925;SDS011;9088;55.674;13.354;2023-04-24T01:52:47;3.40;;;3.30;;
17925;SDS011;9088;55.674;13.354;2023-04-24T01:55:14;3.30;;;3.20;;
17925;SDS011;9088;55.674;13.354;2023-04-24T01:57:42;3.30;;;3.20;;
17925;SDS011;9088;55.674;13.354;2023-04-24T02:00:10;3.30;;;3.20;;
17925;SDS011;9088;55.674;13.354;2023-04-24T02:02:37;3.50;;;3.40;;
17925;SDS011;9088;55.674;13.354;2023-04-24T02:05:07;3.47;;;3.37;;
17925;SDS011;9088;55.674;13.354;2023-04-24T02:07:35;3.40;;;3.30;;
17925;SDS011;9088;55.674;13.354;2023-04-24T02:10:03;3.43;;;3.33;;
17925;SDS011;9088;55.674;13.354;2023-04-24T02:12:31;3.57;;;3.47;;
17925;SDS011;9088;55.674;13.354;2023-04-24T02:14:59;3.60;;;3.50;;
17925;SDS011;9088;55.674;13.354;2023-04-24T02:17:26;3.70;;;3.60;;
17925;SDS011;9088;55.674;13.354;2023-04-24T02:19:53;3.80;;;3.70;;
17925;SDS011;9088;55.674;13.354;2023-04-24T02:22:20;3.60;;;3.50;;
17925;SDS011;9088;55.674;13.354;2023-04-24T02:24:48;3.40;;;3.30;;
17925;SDS011;9088;55.674;13.354;2023-04-24T02:27:15;3.60;;;3.50;;
17925;SDS011;9088;55.674;13.354;2023-04-24T02:29:42;3.60;;;3.50;;
17925;SDS011;9088;55.674;13.354;2023-04-24T02:32:11;3.50;;;3.40;;
17925;SDS011;9088;55.674;13.354;2023-04-24T02:34:40;3.60;;;3.50;;
17925;SDS011;9088;55.674;13.354;2023-04-24T02:37:07;3.70;;;3.60;;
17925;SDS011;9088;55.674;13.354;2023-04-24T02:39:34;3.50;;;3.40;;
17925;SDS011;9088;55.674;13.354;2023-04-24T02:42:01;3.57;;;3.47;;
17925;SDS011;9088;55.674;13.354;2023-04-24T02:44:28;3.57;;;3.47;;
17925;SDS011;9088;55.674;13.354;2023-04-24T02:46:55;3.57;;;3.47;;
17925;SDS011;9088;55.674;13.354;2023-04-24T02:49:24;3.60;;;3.50;;
17925;SDS011;9088;55.674;13.354;2023-04-24T02:51:52;3.50;;;3.40;;
17925;SDS011;9088;55.674;13.354;2023-04-24T02:54:19;3.80;;;3.70;;
17925;SDS011;9088;55.674;13.354;2023-04-24T02:56:46;3.50;;;3.40;;
17925;SDS011;9088;55.674;13.354;2023-04-24T02:59:13;3.50;;;3.40;;
17925;SDS011;9088;55.674;13.354;2023-04-24T03:01:40;3.60;;;3.50;;
17925;SDS011;9088;55.674;13.354;2023-04-24T03:04:07;3.60;;;3.50;;
17925;SDS011;9088;55.674;13.354;2023-04-24T03:06:36;3.60;;;3.50;;
17925;SDS011;9088;55.674;13.354;2023-04-24T03:09:03;3.33;;;3.23;;
17925;SDS011;9088;55.674;13.354;2023-04-24T03:11:30;3.30;;;3.20;;
17925;SDS011;9088;55.674;13.354;2023-04-24T03:13:57;3.27;;;3.17;;
17925;SDS011;9088;55.674;13.354;2023-04-24T03:16:24;3.50;;;3.40;;
17925;SDS011;9088;55.674;13.354;2023-04-24T03:18:51;3.40;;;3.30;;
17925;SDS011;9088;55.674;13.354;2023-04-24T03:21:18;3.40;;;3.30;;
17925;SDS011;9088;55.674;13.354;2023-04-24T03:23:47;3.50;;;3.40;;
17925;SDS011;9088;55.674;13.354;2023-04-24T03:26:14;3.70;;;3.60;;
17925;SDS011;9088;55.674;13.354;2023-04-24T03:28:41;3.47;;;3.37;;
17925;SDS011;9088;55.674;13.354;2023-04-24T03:31:08;3.40;;;3.30;;
17925;SDS011;9088;55.674;13.354;2023-04-24T03:33:35;3.40;;;3.30;;
17925;SDS011;9088;55.674;13.354;2023-04-24T03:36:02;3.50;;;3.40;;
17925;SDS011;9088;55.674;13.354;2023-04-24T03:38:30;3.63;;;3.53;;
17925;SDS011;9088;55.674;13.354;2023-04-24T03:40:58;3.70;;;3.60;;
17925;SDS011;9088;55.674;13.354;2023-04-24T03:43:25;4.10;;;4.00;;
17925;SDS011;9088;55.674;13.354;2023-04-24T03:45:53;4.00;;;3.90;;
17925;SDS011;9088;55.674;13.354;2023-04-24T03:48:20;12.20;;;11.70;;
17925;SDS011;9088;55.674;13.354;2023-04-24T03:50:47;13.03;;;12.53;;
17925;SDS011;9088;55.674;13.354;2023-04-24T03:53:14;13.63;;;13.03;;
17925;SDS011;9088;55.674;13.354;2023-04-24T03:55:41;13.53;;;12.93;;
17925;SDS011;9088;55.674;13.354;2023-04-24T03:58:09;13.70;;;13.10;;
17925;SDS011;9088;55.674;13.354;2023-04-24T04:00:36;14.20;;;13.60;;
17925;SDS011;9088;55.674;13.354;2023-04-24T04:03:05;14.03;;;13.43;;
17925;SDS011;9088;55.674;13.354;2023-04-24T04:05:33;12.90;;;12.40;;
17925;SDS011;9088;55.674;13.354;2023-04-24T04:08:00;13.63;;;13.03;;
17925;SDS011;9088;55.674;13.354;2023-04-24T04:10:27;12.63;;;12.13;;
17925;SDS011;9088;55.674;13.354;2023-04-24T04:12:54;13.00;;;12.50;;
17925;SDS011;9088;55.674;13.354;2023-04-24T04:15:22;13.00;;;12.50;;
17925;SDS011;9088;55.674;13.354;2023-04-24T04:17:49;13.00;;;12.50;;
17925;SDS011;9088;55.674;13.354;2023-04-24T04:20:16;13.10;;;12.60;;
17925;SDS011;9088;55.674;13.354;2023-04-24T04:22:43;13.10;;;12.60;;
17925;SDS011;9088;55.674;13.354;2023-04-24T04:25:10;13.17;;;12.67;;
17925;SDS011;9088;55.674;13.354;2023-04-24T04:27:38;12.40;;;11.90;;
17925;SDS011;9088;55.674;13.354;2023-04-24T04:30:07;12.20;;;11.70;;
17925;SDS011;9088;55.674;13.354;2023-04-24T04:32:36;10.87;;;10.47;;
17925;SDS011;9088;55.674;13.354;2023-04-24T04:35:03;11.57;;;11.07;;
17925;SDS011;9088;55.674;13.354;2023-04-24T04:37:31;10.70;;;10.30;;
17925;SDS011;9088;55.674;13.354;2023-04-24T04:39:58;11.47;;;10.97;;
17925;SDS011;9088;55.674;13.354;2023-04-24T04:42:25;11.40;;;10.90;;
17925;SDS011;9088;55.674;13.354;2023-04-24T04:44:53;11.30;;;10.80;;
17925;SDS011;9088;55.674;13.354;2023-04-24T04:47:21;11.37;;;10.87;;
17925;SDS011;9088;55.674;13.354;2023-04-24T04:49:50;11.60;;;11.10;;
17925;SDS011;9088;55.674;13.354;2023-04-24T04:52:17;11.30;;;10.80;;
17925;SDS011;9088;55.674;13.354;2023-04-24T04:54:44;11.50;;;11.00;;
17925;SDS011;9088;55.674;13.354;2023-04-24T04:57:12;10.83;;;10.43;;
17925;SDS011;9088;55.674;13.354;2023-04-24T04:59:39;10.93;;;10.53;;
17925;SDS011;9088;55.674;13.354;2023-04-24T05:02:06;10.47;;;10.07;;
17925;SDS011;9088;55.674;13.354;2023-04-24T05:04:33;10.03;;;9.63;;
17925;SDS011;9088;55.674;13.354;2023-04-24T05:07:01;10.13;;;9.73;;
17925;SDS011;9088;55.674;13.354;2023-04-24T05:09:28;10.00;;;9.60;;
17925;SDS011;9088;55.674;13.354;2023-04-24T05:11:55;11.17;;;10.73;;
17925;SDS011;9088;55.674;13.354;2023-04-24T05:14:23;11.10;;;10.70;;
17925;SDS011;9088;55.674;13.354;2023-04-24T05:16:50;11.40;;;10.90;;
17925;SDS011;9088;55.674;13.354;2023-04-24T05:19:17;11.20;;;10.70;;
17925;SDS011;9088;55.674;13.354;2023-04-24T05:21:44;10.13;;;9.73;;
17925;SDS011;9088;55.674;13.354;2023-04-24T05:24:12;10.43;;;10.03;;
17925;SDS011;9088;55.674;13.354;2023-04-24T05:26:39;10.40;;;10.00;;
17925;SDS011;9088;55.674;13.354;2023-04-24T05:29:06;11.60;;;11.10;;
17925;SDS011;9088;55.674;13.354;2023-04-24T05:31:33;11.13;;;10.70;;
17925;SDS011;9088;55.674;13.354;2023-04-24T05:34:00;11.17;;;10.73;;
17925;SDS011;9088;55.674;13.354;2023-04-24T05:36:27;12.90;;;12.40;;
17925;SDS011;9088;55.674;13.354;2023-04-24T05:38:55;10.63;;;10.23;;
17925;SDS011;9088;55.674;13.354;2023-04-24T05:41:24;12.10;;;11.60;;
17925;SDS011;9088;55.674;13.354;2023-04-24T05:43:51;11.87;;;11.37;;
17925;SDS011;9088;55.674;13.354;2023-04-24T05:46:18;12.20;;;11.70;;
17925;SDS011;9088;55.674;13.354;2023-04-24T05:48:45;11.30;;;10.80;;
17925;SDS011;9088;55.674;13.354;2023-04-24T05:51:12;12.43;;;11.93;;
17925;SDS011;9088;55.674;13.354;2023-04-24T05:53:39;12.40;;;11.90;;
17925;SDS011;9088;55.674;13.354;2023-04-24T05:56:06;13.67;;;13.07;;
17925;SDS011;9088;55.674;13.354;2023-04-24T05:58:34;11.60;;;11.10;;
17925;SDS011;9088;55.674;13.354;2023-04-24T06:01:02;12.43;;;11.93;;
17925;SDS011;9088;55.674;13.354;2023-04-24T06:03:29;11.43;;;10.93;;
17925;SDS011;9088;55.674;13.354;2023-04-24T06:05:56;12.13;;;11.63;;
17925;SDS011;9088;55.674;13.354;2023-04-24T06:08:23;12.37;;;11.87;;
17925;SDS011;9088;55.674;13.354;2023-04-24T06:10:50;11.90;;;11.40;;
17925;SDS011;9088;55.674;13.354;2023-04-24T06:13:17;12.23;;;11.73;;
17925;SDS011;9088;55.674;13.354;2023-04-24T06:15:46;12.57;;;12.07;;
17925;SDS011;9088;55.674;13.354;2023-04-24T06:18:13;12.33;;;11.83;;
17925;SDS011;9088;55.674;13.354;2023-04-24T06:20:40;12.10;;;11.60;;
17925;SDS011;9088;55.674;13.354;2023-04-24T06:23:07;12.37;;;11.87;;
17925;SDS011;9088;55.674;13.354;2023-04-24T06:25:34;11.70;;;11.20;;
17925;SDS011;9088;55.674;13.354;2023-04-24T06:28:02;12.80;;;12.30;;
17925;SDS011;9088;55.674;13.354;2023-04-24T06:30:29;13.53;;;12.93;;
17925;SDS011;9088;55.674;13.354;2023-04-24T06:32:58;13.33;;;12.80;;
17925;SDS011;9088;55.674;13.354;2023-04-24T06:35:25;13.70;;;13.10;;
17925;SDS011;9088;55.674;13.354;2023-04-24T06:37:52;13.50;;;12.90;;
17925;SDS011;9088;55.674;13.354;2023-04-24T06:40:21;14.00;;;13.40;;
17925;SDS011;9088;55.674;13.354;2023-04-24T06:42:48;14.50;;;13.90;;
17925;SDS011;9088;55.674;13.354;2023-04-24T06:45:15;14.10;;;13.50;;
17925;SDS011;9088;55.674;13.354;2023-04-24T06:47:42;14.40;;;13.80;;
17925;SDS011;9088;55.674;13.354;2023-04-24T06:50:10;13.50;;;12.90;;
17925;SDS011;9088;55.674;13.354;2023-04-24T06:52:37;12.63;;;12.13;;
17925;SDS011;9088;55.674;13.354;2023-04-24T06:55:05;13.93;;;13.33;;
17925;SDS011;9088;55.674;13.354;2023-04-24T06:57:32;13.60;;;13.00;;
17925;SDS011;9088;55.674;13.354;2023-04-24T06:59:59;13.73;;;13.13;;
17925;SDS011;9088;55.674;13.354;2023-04-24T07:02:26;12.40;;;11.90;;
17925;SDS011;9088;55.674;13.354;2023-04-24T07:04:53;13.00;;;12.50;;
17925;SDS011;9088;55.674;13.354;2023-04-24T07:07:21;11.37;;;10.87;;
17925;SDS011;9088;55.674;13.354;2023-04-24T07:09:48;11.43;;;10.93;;
17925;SDS011;9088;55.674;13.354;2023-04-24T07:12:15;10.77;;;10.37;;
17925;SDS011;9088;55.674;13.354;2023-04-24T07:14:45;11.20;;;10.70;;
17925;SDS011;9088;55.674;13.354;2023-04-24T07:17:12;10.37;;;9.97;;
17925;SDS011;9088;55.674;13.354;2023-04-24T07:19:39;9.50;;;9.10;;
17925;SDS011;9088;55.674;13.354;2023-04-24T07:22:06;9.40;;;9.00;;
17925;SDS011;9088;55.674;13.354;2023-04-24T07:24:35;9.63;;;9.23;;
17925;SDS011;9088;55.674;13.354;2023-04-24T07:27:02;9.93;;;9.53;;
17925;SDS011;9088;55.674;13.354;2023-04-24T07:29:29;9.40;;;9.00;;
17925;SDS011;9088;55.674;13.354;2023-04-24T07:31:56;9.67;;;9.27;;
17925;SDS011;9088;55.674;13.354;2023-04-24T07:34:23;10.77;;;10.37;;
17925;SDS011;9088;55.674;13.354;2023-04-24T07:36:50;9.87;;;9.47;;
17925;SDS011;9088;55.674;13.354;2023-04-24T07:39:17;9.73;;;9.33;;
17925;SDS011;9088;55.674;13.354;2023-04-24T07:41:45;8.93;;;8.57;;
17925;SDS011;9088;55.674;13.354;2023-04-24T07:44:12;8.40;;;8.10;;
17925;SDS011;9088;55.674;13.354;2023-04-24T07:46:39;8.13;;;7.83;;
17925;SDS011;9088;55.674;13.354;2023-04-24T07:49:06;7.67;;;7.37;;
17925;SDS011;9088;55.674;13.354;2023-04-24T07:51:33;7.90;;;7.60;;
17925;SDS011;9088;55.674;13.354;2023-04-24T07:54:03;7.63;;;7.33;;
17925;SDS011;9088;55.674;13.354;2023-04-24T07:56:31;8.30;;;8.00;;
17925;SDS011;9088;55.674;13.354;2023-04-24T07:59:00;8.00;;;7.70;;
17925;SDS011;9088;55.674;13.354;2023-04-24T08:01:27;7.47;;;7.17;;
17925;SDS011;9088;55.674;13.354;2023-04-24T08:03:54;7.97;;;7.67;;
17925;SDS011;9088;55.674;13.354;2023-04-24T08:06:21;7.20;;;6.90;;
17925;SDS011;9088;55.674;13.354;2023-04-24T08:08:49;7.80;;;7.50;;
17925;SDS011;9088;55.674;13.354;2023-04-24T08:11:16;7.60;;;7.30;;
17925;SDS011;9088;55.674;13.354;2023-04-24T08:13:43;7.10;;;6.80;;
17925;SDS011;9088;55.674;13.354;2023-04-24T08:16:11;7.07;;;6.77;;
17925;SDS011;9088;55.674;13.354;2023-04-24T08:18:40;7.10;;;6.80;;
17925;SDS011;9088;55.674;13.354;2023-04-24T08:21:07;7.57;;;7.27;;
17925;SDS011;9088;55.674;13.354;2023-04-24T08:23:34;8.10;;;7.80;;
17925;SDS011;9088;55.674;13.354;2023-04-24T08:26:01;7.70;;;7.40;;
17925;SDS011;9088;55.674;13.354;2023-04-24T08:28:28;8.00;;;7.70;;
17925;SDS011;9088;55.674;13.354;2023-04-24T08:30:55;8.40;;;8.10;;
17925;SDS011;9088;55.674;13.354;2023-04-24T08:33:23;7.43;;;7.13;;
17925;SDS011;9088;55.674;13.354;2023-04-24T08:35:50;7.50;;;7.20;;
17925;SDS011;9088;55.674;13.354;2023-04-24T08:38:18;7.20;;;6.90;;
17925;SDS011;9088;55.674;13.354;2023-04-24T08:40:45;7.40;;;7.10;;
17925;SDS011;9088;55.674;13.354;2023-04-24T08:43:14;7.87;;;7.57;;
17925;SDS011;9088;55.674;13.354;2023-04-24T08:45:41;8.30;;;8.00;;
17925;SDS011;9088;55.674;13.354;2023-04-24T08:48:08;8.00;;;7.70;;
17925;SDS011;9088;55.674;13.354;2023-04-24T08:50:37;7.97;;;7.67;;
17925;SDS011;9088;55.674;13.354;2023-04-24T08:53:06;10.07;;;9.67;;
17925;SDS011;9088;55.674;13.354;2023-04-24T08:55:34;9.30;;;8.90;;
17925;SDS011;9088;55.674;13.354;2023-04-24T08:58:01;10.43;;;10.03;;
17925;SDS011;9088;55.674;13.354;2023-04-24T09:00:28;9.70;;;9.30;;
17925;SDS011;9088;55.674;13.354;2023-04-24T09:02:55;9.73;;;9.33;;
17925;SDS011;9088;55.674;13.354;2023-04-24T09:05:23;10.30;;;9.90;;
17925;SDS011;9088;55.674;13.354;2023-04-24T09:07:53;9.77;;;9.37;;
17925;SDS011;9088;55.674;13.354;2023-04-24T09:10:20;10.30;;;9.90;;
17925;SDS011;9088;55.674;13.354;2023-04-24T09:12:48;9.53;;;9.13;;
17925;SDS011;9088;55.674;13.354;2023-04-24T09:15:16;9.00;;;8.60;;
17925;SDS011;9088;55.674;13.354;2023-04-24T09:17:43;9.07;;;8.67;;
17925;SDS011;9088;55.674;13.354;2023-04-24T09:20:10;8.60;;;8.30;;
17925;SDS011;9088;55.674;13.354;2023-04-24T09:22:37;7.63;;;7.33;;
17925;SDS011;9088;55.674;13.354;2023-04-24T09:25:07;8.00;;;7.70;;
17925;SDS011;9088;55.674;13.354;2023-04-24T09:27:34;8.00;;;7.70;;
17925;SDS011;9088;55.674;13.354;2023-04-24T09:30:01;7.40;;;7.10;;
17925;SDS011;9088;55.674;13.354;2023-04-24T09:32:29;6.93;;;6.63;;
17925;SDS011;9088;55.674;13.354;2023-04-24T09:35:10;7.20;;;6.90;;
17925;SDS011;9088;55.674;13.354;2023-04-24T09:37:37;6.60;;;6.40;;
17925;SDS011;9088;55.674;13.354;2023-04-24T09:40:13;6.53;;;6.33;;
17925;SDS011;9088;55.674;13.354;2023-04-24T09:42:42;5.87;;;5.67;;
17925;SDS011;9088;55.674;13.354;2023-04-24T09:45:10;5.90;;;5.70;;
17925;SDS011;9088;55.674;13.354;2023-04-24T09:47:37;5.60;;;5.40;;
17925;SDS011;9088;55.674;13.354;2023-04-24T09:50:11;6.30;;;6.10;;
17925;SDS011;9088;55.674;13.354;2023-04-24T09:52:41;6.40;;;6.20;;
17925;SDS011;9088;55.674;13.354;2023-04-24T09:57:55;6.97;;;6.67;;
17925;SDS011;9088;55.674;13.354;2023-04-24T10:00:23;7.73;;;7.43;;
17925;SDS011;9088;55.674;13.354;2023-04-24T10:02:51;7.37;;;7.07;;
17925;SDS011;9088;55.674;13.354;2023-04-24T10:05:22;7.50;;;7.20;;
17925;SDS011;9088;55.674;13.354;2023-04-24T10:07:50;7.37;;;7.07;;
17925;SDS011;9088;55.674;13.354;2023-04-24T10:10:17;7.40;;;7.10;;
17925;SDS011;9088;55.674;13.354;2023-04-24T10:12:44;7.07;;;6.77;;
17925;SDS011;9088;55.674;13.354;2023-04-24T10:15:12;7.10;;;6.80;;
17925;SDS011;9088;55.674;13.354;2023-04-24T10:17:40;6.20;;;6.00;;
17925;SDS011;9088;55.674;13.354;2023-04-24T10:20:07;6.27;;;6.07;;
17925;SDS011;9088;55.674;13.354;2023-04-24T10:22:35;6.00;;;5.80;;
17925;SDS011;9088;55.674;13.354;2023-04-24T10:25:03;6.00;;;5.80;;
17925;SDS011;9088;55.674;13.354;2023-04-24T10:27:31;5.93;;;5.73;;
17925;SDS011;9088;55.674;13.354;2023-04-24T10:29:58;6.10;;;5.90;;
17925;SDS011;9088;55.674;13.354;2023-04-24T10:32:28;5.97;;;5.77;;
17925;SDS011;9088;55.674;13.354;2023-04-24T10:34:55;6.40;;;6.20;;
17925;SDS011;9088;55.674;13.354;2023-04-24T10:37:22;6.40;;;6.20;;
17925;SDS011;9088;55.674;13.354;2023-04-24T10:39:50;6.00;;;5.80;;
17925;SDS011;9088;55.674;13.354;2023-04-24T10:42:19;6.40;;;6.20;;
17925;SDS011;9088;55.674;13.354;2023-04-24T10:44:47;6.70;;;6.40;;
17925;SDS011;9088;55.674;13.354;2023-04-24T10:47:14;6.70;;;6.43;;
17925;SDS011;9088;55.674;13.354;2023-04-24T10:49:42;6.90;;;6.60;;
17925;SDS011;9088;55.674;13.354;2023-04-24T10:52:10;6.30;;;6.10;;
17925;SDS011;9088;55.674;13.354;2023-04-24T10:54:40;6.33;;;6.13;;
17925;SDS011;9088;55.674;13.354;2023-04-24T10:57:26;6.43;;;6.23;;
17925;SDS011;9088;55.674;13.354;2023-04-24T11:00:13;5.57;;;5.37;;
17925;SDS011;9088;55.674;13.354;2023-04-24T11:02:41;5.90;;;5.70;;
17925;SDS011;9088;55.674;13.354;2023-04-24T11:05:15;6.20;;;6.00;;
17925;SDS011;9088;55.674;13.354;2023-04-24T11:08:09;5.93;;;5.73;;
17925;SDS011;9088;55.674;13.354;2023-04-24T11:10:38;5.67;;;5.47;;
17925;SDS011;9088;55.674;13.354;2023-04-24T11:13:05;5.90;;;5.70;;
17925;SDS011;9088;55.674;13.354;2023-04-24T11:15:32;4.70;;;4.50;;
17925;SDS011;9088;55.674;13.354;2023-04-24T11:17:59;5.30;;;5.10;;
17925;SDS011;9088;55.674;13.354;2023-04-24T11:20:28;5.10;;;4.90;;
17925;SDS011;9088;55.674;13.354;2023-04-24T11:22:57;4.57;;;4.37;;
17925;SDS011;9088;55.674;13.354;2023-04-24T11:25:30;4.60;;;4.40;;
17925;SDS011;9088;55.674;13.354;2023-04-24T11:28:02;4.10;;;4.00;;
17925;SDS011;9088;55.674;13.354;2023-04-24T11:30:30;4.50;;;4.30;;
17925;SDS011;9088;55.674;13.354;2023-04-24T11:33:01;4.10;;;4.00;;
17925;SDS011;9088;55.674;13.354;2023-04-24T11:35:29;3.90;;;3.80;;
17925;SDS011;9088;55.674;13.354;2023-04-24T11:38:02;3.83;;;3.73;;
17925;SDS011;9088;55.674;13.354;2023-04-24T11:40:30;3.73;;;3.63;;
17925;SDS011;9088;55.674;13.354;2023-04-24T11:42:59;3.80;;;3.70;;
17925;SDS011;9088;55.674;13.354;2023-04-24T11:45:27;4.00;;;3.90;;
17925;SDS011;9088;55.674;13.354;2023-04-24T11:47:54;3.90;;;3.80;;
17925;SDS011;9088;55.674;13.354;2023-04-24T11:50:22;3.70;;;3.60;;
17925;SDS011;9088;55.674;13.354;2023-04-24T11:52:51;3.90;;;3.80;;
17925;SDS011;9088;55.674;13.354;2023-04-24T11:55:25;3.60;;;3.50;;
17925;SDS011;9088;55.674;13.354;2023-04-24T11:57:53;3.63;;;3.53;;
17925;SDS011;9088;55.674;13.354;2023-04-24T12:00:22;3.87;;;3.77;;
17925;SDS011;9088;55.674;13.354;2023-04-24T12:02:50;3.60;;;3.50;;
17925;SDS011;9088;55.674;13.354;2023-04-24T12:05:20;3.60;;;3.50;;
17925;SDS011;9088;55.674;13.354;2023-04-24T12:07:47;4.10;;;4.00;;
17925;SDS011;9088;55.674;13.354;2023-04-24T12:10:19;3.27;;;3.17;;
17925;SDS011;9088;55.674;13.354;2023-04-24T12:12:46;3.60;;;3.50;;
17925;SDS011;9088;55.674;13.354;2023-04-24T12:15:15;3.40;;;3.30;;
17925;SDS011;9088;55.674;13.354;2023-04-24T12:17:42;3.20;;;3.10;;
17925;SDS011;9088;55.674;13.354;2023-04-24T12:20:10;3.30;;;3.20;;
17925;SDS011;9088;55.674;13.354;2023-04-24T12:22:44;3.20;;;3.10;;
17925;SDS011;9088;55.674;13.354;2023-04-24T12:25:11;2.73;;;2.63;;
17925;SDS011;9088;55.674;13.354;2023-04-24T12:27:40;3.27;;;3.17;;
17925;SDS011;9088;55.674;13.354;2023-04-24T12:30:09;3.20;;;3.10;;
17925;SDS011;9088;55.674;13.354;2023-04-24T12:32:40;2.97;;;2.87;;
17925;SDS011;9088;55.674;13.354;2023-04-24T12:35:07;2.97;;;2.87;;
17925;SDS011;9088;55.674;13.354;2023-04-24T12:37:34;2.90;;;2.80;;
17925;SDS011;9088;55.674;13.354;2023-04-24T12:40:03;2.40;;;2.30;;
17925;SDS011;9088;55.674;13.354;2023-04-24T12:42:31;2.53;;;2.43;;
17925;SDS011;9088;55.674;13.354;2023-04-24T12:45:00;2.60;;;2.50;;
17925;SDS011;9088;55.674;13.354;2023-04-24T12:47:28;2.63;;;2.53;;
17925;SDS011;9088;55.674;13.354;2023-04-24T12:49:55;2.43;;;2.33;;
17925;SDS011;9088;55.674;13.354;2023-04-24T12:52:22;2.60;;;2.50;;
17925;SDS011;9088;55.674;13.354;2023-04-24T12:54:51;2.47;;;2.37;;
17925;SDS011;9088;55.674;13.354;2023-04-24T12:57:19;2.30;;;2.20;;
17925;SDS011;9088;55.674;13.354;2023-04-24T12:59:46;2.10;;;2.00;;
17925;SDS011;9088;55.674;13.354;2023-04-24T13:02:14;2.20;;;2.10;;
17925;SDS011;9088;55.674;13.354;2023-04-24T13:04:43;1.87;;;1.87;;
17925;SDS011;9088;55.674;13.354;2023-04-24T13:07:10;2.13;;;2.03;;
17925;SDS011;9088;55.674;13.354;2023-04-24T13:09:37;2.10;;;2.00;;
17925;SDS011;9088;55.674;13.354;2023-04-24T13:12:05;2.10;;;2.00;;
17925;SDS011;9088;55.674;13.354;2023-04-24T13:14:32;2.20;;;2.10;;
17925;SDS011;9088;55.674;13.354;2023-04-24T13:16:59;2.10;;;2.00;;
17925;SDS011;9088;55.674;13.354;2023-04-24T13:19:27;2.30;;;2.20;;
17925;SDS011;9088;55.674;13.354;2023-04-24T13:21:54;2.03;;;1.93;;
17925;SDS011;9088;55.674;13.354;2023-04-24T13:24:22;2.33;;;2.23;;
17925;SDS011;9088;55.674;13.354;2023-04-24T13:26:50;2.70;;;2.60;;
17925;SDS011;9088;55.674;13.354;2023-04-24T13:29:17;2.90;;;2.80;;
17925;SDS011;9088;55.674;13.354;2023-04-24T13:31:44;2.80;;;2.70;;
17925;SDS011;9088;55.674;13.354;2023-04-24T13:34:11;2.63;;;2.53;;
17925;SDS011;9088;55.674;13.354;2023-04-24T13:36:40;2.67;;;2.57;;
17925;SDS011;9088;55.674;13.354;2023-04-24T13:39:07;2.87;;;2.77;;
17925;SDS011;9088;55.674;13.354;2023-04-24T13:41:34;2.77;;;2.67;;
17925;SDS011;9088;55.674;13.354;2023-04-24T13:44:01;2.60;;;2.50;;
17925;SDS011;9088;55.674;13.354;2023-04-24T13:46:28;2.80;;;2.70;;
17925;SDS011;9088;55.674;13.354;2023-04-24T13:48:56;2.80;;;2.70;;
17925;SDS011;9088;55.674;13.354;2023-04-24T13:51:23;2.60;;;2.50;;
17925;SDS011;9088;55.674;13.354;2023-04-24T13:53:53;2.50;;;2.40;;
17925;SDS011;9088;55.674;13.354;2023-04-24T13:56:20;2.40;;;2.30;;
17925;SDS011;9088;55.674;13.354;2023-04-24T13:58:48;1.87;;;1.87;;
17925;SDS011;9088;55.674;13.354;2023-04-24T14:01:15;2.40;;;2.30;;
17925;SDS011;9088;55.674;13.354;2023-04-24T14:03:42;2.40;;;2.30;;
17925;SDS011;9088;55.674;13.354;2023-04-24T14:06:09;2.30;;;2.20;;
17925;SDS011;9088;55.674;13.354;2023-04-24T14:08:36;2.67;;;2.57;;
17925;SDS011;9088;55.674;13.354;2023-04-24T14:11:05;2.27;;;2.17;;
17925;SDS011;9088;55.674;13.354;2023-04-24T14:13:32;2.20;;;2.10;;
17925;SDS011;9088;55.674;13.354;2023-04-24T14:15:59;2.53;;;2.43;;
17925;SDS011;9088;55.674;13.354;2023-04-24T14:18:26;2.60;;;2.50;;
17925;SDS011;9088;55.674;13.354;2023-04-24T14:20:53;2.33;;;2.23;;
17925;SDS011;9088;55.674;13.354;2023-04-24T14:23:20;2.40;;;2.30;;
17925;SDS011;9088;55.674;13.354;2023-04-24T14:25:47;2.30;;;2.20;;
17925;SDS011;9088;55.674;13.354;2023-04-24T14:28:18;2.30;;;2.20;;
17925;SDS011;9088;55.674;13.354;2023-04-24T14:30:45;2.40;;;2.30;;
17925;SDS011;9088;55.674;13.354;2023-04-24T14:33:12;2.50;;;2.40;;
17925;SDS011;9088;55.674;13.354;2023-04-24T14:35:39;2.37;;;2.27;;
17925;SDS011;9088;55.674;13.354;2023-04-24T14:38:07;2.50;;;2.40;;
17925;SDS011;9088;55.674;13.354;2023-04-24T14:40:34;2.60;;;2.50;;
17925;SDS011;9088;55.674;13.354;2023-04-24T14:43:01;2.50;;;2.40;;
17925;SDS011;9088;55.674;13.354;2023-04-24T14:45:29;2.40;;;2.30;;
17925;SDS011;9088;55.674;13.354;2023-04-24T14:47:57;2.50;;;2.40;;